sensor_id;sensor_type;location;lat;lon;timestamp;temperature;humidity
14370;DHT22;7268;50.792;0.252;2024-01-06T00:02:26;4.10;99.90
14370;DHT22;7268;50.792;0.252;2024-01-06T00:04:53;4.00;99.90
14370;DHT22;7268;50.792;0.252;2024-01-06T00:07:20;4.00;99.90
14370;DHT22;7268;50.792;0.252;2024-01-06T00:09:47;4.00;99.90
14370;DHT22;7268;50.792;0.252;2024-01-06T00:12:14;4.10;99.90
14370;DHT22;7268;50.792;0.252;2024-01-06T00:14:41;4.10;99.90
14370;DHT22;7268;50.792;0.252;2024-01-06T00:17:11;4.00;99.90
14370;DHT22;7268;50.792;0.252;2024-01-06T00:19:37;3.90;99.90
14370;DHT22;7268;50.792;0.252;2024-01-06T00:22:05;4.10;99.90
14370;DHT22;7268;50.792;0.252;2024-01-06T00:24:31;4.10;99.90
14370;DHT22;7268;50.792;0.252;2024-01-06T00:26:58;4.00;99.90
14370;DHT22;7268;50.792;0.252;2024-01-06T00:29:25;4.00;99.90
14370;DHT22;7268;50.792;0.252;2024-01-06T00:31:52;4.10;99.90
14370;DHT22;7268;50.792;0.252;2024-01-06T00:34:19;4.10;99.90
14370;DHT22;7268;50.792;0.252;2024-01-06T00:36:46;4.10;99.90
14370;DHT22;7268;50.792;0.252;2024-01-06T00:39:13;4.10;99.90
14370;DHT22;7268;50.792;0.252;2024-01-06T00:41:40;4.20;99.90
14370;DHT22;7268;50.792;0.252;2024-01-06T00:44:07;4.10;99.90
14370;DHT22;7268;50.792;0.252;2024-01-06T00:46:34;4.10;99.90
14370;DHT22;7268;50.792;0.252;2024-01-06T00:49:01;4.00;99.90
14370;DHT22;7268;50.792;0.252;2024-01-06T00:51:28;4.10;99.90
14370;DHT22;7268;50.792;0.252;2024-01-06T00:53:55;4.10;99.90
14370;DHT22;7268;50.792;0.252;2024-01-06T00:56:23;4.10;99.90
14370;DHT22;7268;50.792;0.252;2024-01-06T00:58:50;4.10;99.90
14370;DHT22;7268;50.792;0.252;2024-01-06T01:01:17;4.20;99.90
14370;DHT22;7268;50.792;0.252;2024-01-06T01:03:44;4.10;99.90
14370;DHT22;7268;50.792;0.252;2024-01-06T01:06:11;4.20;99.90
14370;DHT22;7268;50.792;0.252;2024-01-06T01:08:38;4.20;99.90
14370;DHT22;7268;50.792;0.252;2024-01-06T01:11:05;4.10;99.90
14370;DHT22;7268;50.792;0.252;2024-01-06T01:13:32;4.10;99.90
14370;DHT22;7268;50.792;0.252;2024-01-06T01:15:59;4.00;99.90
14370;DHT22;7268;50.792;0.252;2024-01-06T01:18:26;4.00;99.90
14370;DHT22;7268;50.792;0.252;2024-01-06T01:20:53;4.00;99.90
14370;DHT22;7268;50.792;0.252;2024-01-06T01:23:20;4.00;99.90
14370;DHT22;7268;50.792;0.252;2024-01-06T01:25:47;4.00;99.90
14370;DHT22;7268;50.792;0.252;2024-01-06T01:28:14;4.00;99.90
14370;DHT22;7268;50.792;0.252;2024-01-06T01:30:41;4.10;99.90
14370;DHT22;7268;50.792;0.252;2024-01-06T01:33:08;4.20;99.90
14370;DHT22;7268;50.792;0.252;2024-01-06T01:35:35;4.20;99.90
14370;DHT22;7268;50.792;0.252;2024-01-06T01:38:02;4.20;99.90
14370;DHT22;7268;50.792;0.252;2024-01-06T01:40:29;4.30;99.90
14370;DHT22;7268;50.792;0.252;2024-01-06T01:42:56;4.40;99.90
14370;DHT22;7268;50.792;0.252;2024-01-06T01:45:23;4.50;99.90
14370;DHT22;7268;50.792;0.252;2024-01-06T01:47:50;4.50;99.90
14370;DHT22;7268;50.792;0.252;2024-01-06T01:50:17;4.50;99.90
14370;DHT22;7268;50.792;0.252;2024-01-06T01:52:46;4.60;99.90
14370;DHT22;7268;50.792;0.252;2024-01-06T01:55:13;4.50;99.90
14370;DHT22;7268;50.792;0.252;2024-01-06T01:57:41;4.50;99.90
14370;DHT22;7268;50.792;0.252;2024-01-06T02:00:08;4.60;99.90
14370;DHT22;7268;50.792;0.252;2024-01-06T02:02:36;4.60;99.90
14370;DHT22;7268;50.792;0.252;2024-01-06T02:05:03;4.60;99.90
14370;DHT22;7268;50.792;0.252;2024-01-06T02:07:30;4.60;99.90
14370;DHT22;7268;50.792;0.252;2024-01-06T02:09:57;4.60;99.90
14370;DHT22;7268;50.792;0.252;2024-01-06T02:12:24;4.70;99.90
14370;DHT22;7268;50.792;0.252;2024-01-06T02:14:50;4.60;99.90
14370;DHT22;7268;50.792;0.252;2024-01-06T02:17:17;4.50;99.90
14370;DHT22;7268;50.792;0.252;2024-01-06T02:19:44;4.30;99.90
14370;DHT22;7268;50.792;0.252;2024-01-06T02:22:11;4.10;99.90
14370;DHT22;7268;50.792;0.252;2024-01-06T02:24:38;3.90;99.90
14370;DHT22;7268;50.792;0.252;2024-01-06T02:27:05;3.70;99.90
14370;DHT22;7268;50.792;0.252;2024-01-06T02:29:32;3.60;99.90
14370;DHT22;7268;50.792;0.252;2024-01-06T02:31:59;3.70;99.90
14370;DHT22;7268;50.792;0.252;2024-01-06T02:34:26;3.90;99.90
14370;DHT22;7268;50.792;0.252;2024-01-06T02:36:53;4.00;99.90
14370;DHT22;7268;50.792;0.252;2024-01-06T02:39:20;4.30;99.90
14370;DHT22;7268;50.792;0.252;2024-01-06T02:41:47;4.40;99.90
14370;DHT22;7268;50.792;0.252;2024-01-06T02:44:14;4.50;99.90
14370;DHT22;7268;50.792;0.252;2024-01-06T02:46:41;4.60;99.90
14370;DHT22;7268;50.792;0.252;2024-01-06T02:49:08;4.60;99.90
14370;DHT22;7268;50.792;0.252;2024-01-06T02:51:35;4.80;99.90
14370;DHT22;7268;50.792;0.252;2024-01-06T02:54:04;4.80;99.90
14370;DHT22;7268;50.792;0.252;2024-01-06T02:56:31;4.80;99.90
14370;DHT22;7268;50.792;0.252;2024-01-06T02:58:58;4.80;99.90
14370;DHT22;7268;50.792;0.252;2024-01-06T03:01:24;4.90;99.90
14370;DHT22;7268;50.792;0.252;2024-01-06T03:03:51;4.90;99.90
14370;DHT22;7268;50.792;0.252;2024-01-06T03:06:18;4.90;99.90
14370;DHT22;7268;50.792;0.252;2024-01-06T03:08:45;4.90;99.90
14370;DHT22;7268;50.792;0.252;2024-01-06T03:11:12;4.90;99.90
14370;DHT22;7268;50.792;0.252;2024-01-06T03:13:39;5.00;99.90
14370;DHT22;7268;50.792;0.252;2024-01-06T03:16:06;5.00;99.90
14370;DHT22;7268;50.792;0.252;2024-01-06T03:18:33;5.00;99.90
14370;DHT22;7268;50.792;0.252;2024-01-06T03:21:00;5.00;99.90
14370;DHT22;7268;50.792;0.252;2024-01-06T03:23:27;5.00;99.90
14370;DHT22;7268;50.792;0.252;2024-01-06T03:25:54;5.00;99.90
14370;DHT22;7268;50.792;0.252;2024-01-06T03:28:21;5.00;99.90
14370;DHT22;7268;50.792;0.252;2024-01-06T03:30:48;5.00;99.90
14370;DHT22;7268;50.792;0.252;2024-01-06T03:33:15;5.10;99.90
14370;DHT22;7268;50.792;0.252;2024-01-06T03:35:42;5.10;99.90
14370;DHT22;7268;50.792;0.252;2024-01-06T03:38:09;5.10;99.90
14370;DHT22;7268;50.792;0.252;2024-01-06T03:40:36;5.10;99.90
14370;DHT22;7268;50.792;0.252;2024-01-06T03:43:22;5.10;99.90
14370;DHT22;7268;50.792;0.252;2024-01-06T03:46:08;5.10;99.90
14370;DHT22;7268;50.792;0.252;2024-01-06T03:48:53;5.10;99.90
14370;DHT22;7268;50.792;0.252;2024-01-06T03:51:39;5.10;99.90
14370;DHT22;7268;50.792;0.252;2024-01-06T03:54:06;5.10;99.90
14370;DHT22;7268;50.792;0.252;2024-01-06T03:56:33;5.10;99.90
14370;DHT22;7268;50.792;0.252;2024-01-06T03:59:02;5.20;99.90
14370;DHT22;7268;50.792;0.252;2024-01-06T04:01:29;5.20;99.90
14370;DHT22;7268;50.792;0.252;2024-01-06T04:04:04;5.20;99.90
14370;DHT22;7268;50.792;0.252;2024-01-06T04:06:32;5.10;99.90
14370;DHT22;7268;50.792;0.252;2024-01-06T04:08:59;5.20;99.90
14370;DHT22;7268;50.792;0.252;2024-01-06T04:11:26;5.20;99.90
14370;DHT22;7268;50.792;0.252;2024-01-06T04:13:53;5.20;99.90
14370;DHT22;7268;50.792;0.252;2024-01-06T04:16:20;5.20;99.90
14370;DHT22;7268;50.792;0.252;2024-01-06T04:18:47;5.20;99.90
14370;DHT22;7268;50.792;0.252;2024-01-06T04:21:14;5.20;99.90
14370;DHT22;7268;50.792;0.252;2024-01-06T04:23:41;5.20;99.90
14370;DHT22;7268;50.792;0.252;2024-01-06T04:26:08;5.20;99.90
14370;DHT22;7268;50.792;0.252;2024-01-06T04:28:35;5.20;99.90
14370;DHT22;7268;50.792;0.252;2024-01-06T04:31:02;5.30;99.90
14370;DHT22;7268;50.792;0.252;2024-01-06T04:33:30;5.30;99.90
14370;DHT22;7268;50.792;0.252;2024-01-06T04:35:58;5.30;99.90
14370;DHT22;7268;50.792;0.252;2024-01-06T04:38:25;5.30;99.90
14370;DHT22;7268;50.792;0.252;2024-01-06T04:40:52;5.40;99.90
14370;DHT22;7268;50.792;0.252;2024-01-06T04:43:19;5.40;99.90
14370;DHT22;7268;50.792;0.252;2024-01-06T04:45:46;5.30;99.90
14370;DHT22;7268;50.792;0.252;2024-01-06T04:48:13;5.30;99.90
14370;DHT22;7268;50.792;0.252;2024-01-06T04:50:40;5.30;99.90
14370;DHT22;7268;50.792;0.252;2024-01-06T04:53:08;5.30;99.90
14370;DHT22;7268;50.792;0.252;2024-01-06T04:55:35;5.20;99.90
14370;DHT22;7268;50.792;0.252;2024-01-06T04:58:01;5.10;99.90
14370;DHT22;7268;50.792;0.252;2024-01-06T05:00:28;5.00;99.90
14370;DHT22;7268;50.792;0.252;2024-01-06T05:02:55;5.00;99.90
14370;DHT22;7268;50.792;0.252;2024-01-06T05:05:22;4.90;99.90
14370;DHT22;7268;50.792;0.252;2024-01-06T05:07:49;4.80;99.90
14370;DHT22;7268;50.792;0.252;2024-01-06T05:10:16;4.80;99.90
14370;DHT22;7268;50.792;0.252;2024-01-06T05:12:43;4.80;99.90
14370;DHT22;7268;50.792;0.252;2024-01-06T05:15:11;4.90;99.90
14370;DHT22;7268;50.792;0.252;2024-01-06T05:17:38;5.00;99.90
14370;DHT22;7268;50.792;0.252;2024-01-06T05:20:06;5.00;99.90
14370;DHT22;7268;50.792;0.252;2024-01-06T05:22:33;5.00;99.90
14370;DHT22;7268;50.792;0.252;2024-01-06T05:25:00;5.00;99.90
14370;DHT22;7268;50.792;0.252;2024-01-06T05:27:27;5.10;99.90
14370;DHT22;7268;50.792;0.252;2024-01-06T05:29:54;5.10;99.90
14370;DHT22;7268;50.792;0.252;2024-01-06T05:32:21;5.10;99.90
14370;DHT22;7268;50.792;0.252;2024-01-06T05:34:48;5.20;99.90
14370;DHT22;7268;50.792;0.252;2024-01-06T05:37:15;5.20;99.90
14370;DHT22;7268;50.792;0.252;2024-01-06T05:39:42;5.20;99.90
14370;DHT22;7268;50.792;0.252;2024-01-06T05:42:10;5.10;99.90
14370;DHT22;7268;50.792;0.252;2024-01-06T05:44:39;5.10;99.90
14370;DHT22;7268;50.792;0.252;2024-01-06T05:47:06;5.10;99.90
14370;DHT22;7268;50.792;0.252;2024-01-06T05:49:35;5.10;99.90
14370;DHT22;7268;50.792;0.252;2024-01-06T05:52:02;5.10;99.90
14370;DHT22;7268;50.792;0.252;2024-01-06T05:54:29;5.10;99.90
14370;DHT22;7268;50.792;0.252;2024-01-06T05:56:56;5.10;99.90
14370;DHT22;7268;50.792;0.252;2024-01-06T05:59:23;5.00;99.90
14370;DHT22;7268;50.792;0.252;2024-01-06T06:01:50;5.00;99.90
14370;DHT22;7268;50.792;0.252;2024-01-06T06:04:17;4.80;99.90
14370;DHT22;7268;50.792;0.252;2024-01-06T06:06:44;4.70;99.90
14370;DHT22;7268;50.792;0.252;2024-01-06T06:09:11;4.70;99.90
14370;DHT22;7268;50.792;0.252;2024-01-06T06:11:39;4.70;99.90
14370;DHT22;7268;50.792;0.252;2024-01-06T06:14:06;4.70;99.90
14370;DHT22;7268;50.792;0.252;2024-01-06T06:16:38;4.70;99.90
14370;DHT22;7268;50.792;0.252;2024-01-06T06:19:08;4.80;99.90
14370;DHT22;7268;50.792;0.252;2024-01-06T06:21:35;4.80;99.90
14370;DHT22;7268;50.792;0.252;2024-01-06T06:24:02;4.90;99.90
14370;DHT22;7268;50.792;0.252;2024-01-06T06:26:29;4.90;99.90
14370;DHT22;7268;50.792;0.252;2024-01-06T06:28:56;4.90;99.90
14370;DHT22;7268;50.792;0.252;2024-01-06T06:31:23;5.00;99.90
14370;DHT22;7268;50.792;0.252;2024-01-06T06:33:50;5.00;99.90
14370;DHT22;7268;50.792;0.252;2024-01-06T06:36:19;5.00;99.90
14370;DHT22;7268;50.792;0.252;2024-01-06T06:38:46;5.00;99.90
14370;DHT22;7268;50.792;0.252;2024-01-06T06:41:13;5.00;99.90
14370;DHT22;7268;50.792;0.252;2024-01-06T06:43:41;5.00;99.90
14370;DHT22;7268;50.792;0.252;2024-01-06T06:46:08;5.00;99.90
14370;DHT22;7268;50.792;0.252;2024-01-06T06:48:35;5.00;99.90
14370;DHT22;7268;50.792;0.252;2024-01-06T06:51:03;4.90;99.90
14370;DHT22;7268;50.792;0.252;2024-01-06T06:53:30;4.90;99.90
14370;DHT22;7268;50.792;0.252;2024-01-06T06:55:57;4.90;99.90
14370;DHT22;7268;50.792;0.252;2024-01-06T06:58:24;4.80;99.90
14370;DHT22;7268;50.792;0.252;2024-01-06T07:00:51;4.80;99.90
14370;DHT22;7268;50.792;0.252;2024-01-06T07:03:18;4.70;99.90
14370;DHT22;7268;50.792;0.252;2024-01-06T07:05:45;4.60;99.90
14370;DHT22;7268;50.792;0.252;2024-01-06T07:08:12;4.50;99.90
14370;DHT22;7268;50.792;0.252;2024-01-06T07:10:41;4.40;99.90
14370;DHT22;7268;50.792;0.252;2024-01-06T07:13:08;4.30;99.90
14370;DHT22;7268;50.792;0.252;2024-01-06T07:15:35;4.30;99.90
14370;DHT22;7268;50.792;0.252;2024-01-06T07:18:02;4.20;99.90
14370;DHT22;7268;50.792;0.252;2024-01-06T07:20:29;4.20;99.90
14370;DHT22;7268;50.792;0.252;2024-01-06T07:22:56;4.20;99.90
14370;DHT22;7268;50.792;0.252;2024-01-06T07:25:23;4.10;99.90
14370;DHT22;7268;50.792;0.252;2024-01-06T07:27:49;4.20;99.90
14370;DHT22;7268;50.792;0.252;2024-01-06T07:30:21;4.30;99.90
14370;DHT22;7268;50.792;0.252;2024-01-06T07:32:48;4.30;99.90
14370;DHT22;7268;50.792;0.252;2024-01-06T07:35:16;4.30;99.90
14370;DHT22;7268;50.792;0.252;2024-01-06T07:37:43;4.20;99.90
14370;DHT22;7268;50.792;0.252;2024-01-06T07:40:10;4.20;99.90
14370;DHT22;7268;50.792;0.252;2024-01-06T07:42:37;4.20;99.90
14370;DHT22;7268;50.792;0.252;2024-01-06T07:45:05;4.30;99.90
14370;DHT22;7268;50.792;0.252;2024-01-06T07:47:32;4.40;99.90
14370;DHT22;7268;50.792;0.252;2024-01-06T07:49:59;4.40;99.90
14370;DHT22;7268;50.792;0.252;2024-01-06T07:52:26;4.50;99.90
14370;DHT22;7268;50.792;0.252;2024-01-06T07:54:53;4.50;99.90
14370;DHT22;7268;50.792;0.252;2024-01-06T07:57:20;4.50;99.90
14370;DHT22;7268;50.792;0.252;2024-01-06T07:59:47;4.60;99.90
14370;DHT22;7268;50.792;0.252;2024-01-06T08:02:14;4.60;99.90
14370;DHT22;7268;50.792;0.252;2024-01-06T08:04:41;4.60;99.90
14370;DHT22;7268;50.792;0.252;2024-01-06T08:07:08;4.60;99.90
14370;DHT22;7268;50.792;0.252;2024-01-06T08:09:35;4.70;99.90
14370;DHT22;7268;50.792;0.252;2024-01-06T08:12:07;4.70;99.90
14370;DHT22;7268;50.792;0.252;2024-01-06T08:14:34;4.80;99.90
14370;DHT22;7268;50.792;0.252;2024-01-06T08:17:00;4.80;99.90
14370;DHT22;7268;50.792;0.252;2024-01-06T08:19:28;4.80;99.90
14370;DHT22;7268;50.792;0.252;2024-01-06T08:21:57;4.80;99.90
14370;DHT22;7268;50.792;0.252;2024-01-06T08:24:24;4.80;99.90
14370;DHT22;7268;50.792;0.252;2024-01-06T08:26:51;4.90;99.90
14370;DHT22;7268;50.792;0.252;2024-01-06T08:29:18;4.80;99.90
14370;DHT22;7268;50.792;0.252;2024-01-06T08:31:46;4.90;99.90
14370;DHT22;7268;50.792;0.252;2024-01-06T08:34:14;5.00;99.90
14370;DHT22;7268;50.792;0.252;2024-01-06T08:36:41;5.00;99.90
14370;DHT22;7268;50.792;0.252;2024-01-06T08:39:08;5.10;99.90
14370;DHT22;7268;50.792;0.252;2024-01-06T08:41:35;5.10;99.90
14370;DHT22;7268;50.792;0.252;2024-01-06T08:44:02;5.10;99.90
14370;DHT22;7268;50.792;0.252;2024-01-06T08:46:29;5.20;99.90
14370;DHT22;7268;50.792;0.252;2024-01-06T08:48:57;5.30;99.90
14370;DHT22;7268;50.792;0.252;2024-01-06T08:51:24;5.30;99.90
14370;DHT22;7268;50.792;0.252;2024-01-06T08:53:53;5.40;99.90
14370;DHT22;7268;50.792;0.252;2024-01-06T08:56:20;5.50;99.90
14370;DHT22;7268;50.792;0.252;2024-01-06T08:58:47;5.50;99.90
14370;DHT22;7268;50.792;0.252;2024-01-06T09:01:15;5.60;99.90
14370;DHT22;7268;50.792;0.252;2024-01-06T09:03:42;5.60;99.90
14370;DHT22;7268;50.792;0.252;2024-01-06T09:06:09;5.70;99.90
14370;DHT22;7268;50.792;0.252;2024-01-06T09:08:36;5.60;99.90
14370;DHT22;7268;50.792;0.252;2024-01-06T09:11:06;5.60;99.90
14370;DHT22;7268;50.792;0.252;2024-01-06T09:13:33;5.60;99.90
14370;DHT22;7268;50.792;0.252;2024-01-06T09:16:00;5.60;99.90
14370;DHT22;7268;50.792;0.252;2024-01-06T09:18:29;5.60;99.90
14370;DHT22;7268;50.792;0.252;2024-01-06T09:20:56;5.60;99.90
14370;DHT22;7268;50.792;0.252;2024-01-06T09:23:29;5.60;99.90
14370;DHT22;7268;50.792;0.252;2024-01-06T09:25:57;5.60;99.90
14370;DHT22;7268;50.792;0.252;2024-01-06T09:28:24;5.60;99.90
14370;DHT22;7268;50.792;0.252;2024-01-06T09:30:51;5.60;99.90
14370;DHT22;7268;50.792;0.252;2024-01-06T09:33:24;5.60;99.90
14370;DHT22;7268;50.792;0.252;2024-01-06T09:35:52;5.60;99.90
14370;DHT22;7268;50.792;0.252;2024-01-06T09:38:19;5.70;99.90
14370;DHT22;7268;50.792;0.252;2024-01-06T09:40:47;5.60;99.90
14370;DHT22;7268;50.792;0.252;2024-01-06T09:43:15;5.60;99.90
14370;DHT22;7268;50.792;0.252;2024-01-06T09:45:42;5.60;99.90
14370;DHT22;7268;50.792;0.252;2024-01-06T09:48:13;5.60;99.90
14370;DHT22;7268;50.792;0.252;2024-01-06T09:50:42;5.70;99.90
14370;DHT22;7268;50.792;0.252;2024-01-06T09:53:11;5.70;99.90
14370;DHT22;7268;50.792;0.252;2024-01-06T09:55:38;5.80;99.90
14370;DHT22;7268;50.792;0.252;2024-01-06T09:58:06;5.80;99.90
14370;DHT22;7268;50.792;0.252;2024-01-06T10:00:33;5.90;99.90
14370;DHT22;7268;50.792;0.252;2024-01-06T10:03:00;6.00;99.90
14370;DHT22;7268;50.792;0.252;2024-01-06T10:05:27;6.00;99.90
14370;DHT22;7268;50.792;0.252;2024-01-06T10:07:54;6.00;99.90
14370;DHT22;7268;50.792;0.252;2024-01-06T10:10:22;6.00;99.90
14370;DHT22;7268;50.792;0.252;2024-01-06T10:12:53;6.00;99.90
14370;DHT22;7268;50.792;0.252;2024-01-06T10:15:21;6.00;99.90
14370;DHT22;7268;50.792;0.252;2024-01-06T10:17:48;6.00;99.90
14370;DHT22;7268;50.792;0.252;2024-01-06T10:20:17;6.00;99.90
14370;DHT22;7268;50.792;0.252;2024-01-06T10:22:45;6.00;99.90
14370;DHT22;7268;50.792;0.252;2024-01-06T10:25:12;6.00;99.90
14370;DHT22;7268;50.792;0.252;2024-01-06T10:27:41;5.90;99.90
14370;DHT22;7268;50.792;0.252;2024-01-06T10:30:09;5.90;99.90
14370;DHT22;7268;50.792;0.252;2024-01-06T10:32:36;5.90;99.90
14370;DHT22;7268;50.792;0.252;2024-01-06T10:35:04;5.90;99.90
14370;DHT22;7268;50.792;0.252;2024-01-06T10:37:33;5.90;99.90
14370;DHT22;7268;50.792;0.252;2024-01-06T10:40:10;5.90;99.90
14370;DHT22;7268;50.792;0.252;2024-01-06T10:42:38;5.90;99.90
14370;DHT22;7268;50.792;0.252;2024-01-06T10:45:07;6.00;99.90
14370;DHT22;7268;50.792;0.252;2024-01-06T10:47:37;5.90;99.90
14370;DHT22;7268;50.792;0.252;2024-01-06T10:50:04;5.90;99.90
14370;DHT22;7268;50.792;0.252;2024-01-06T10:52:32;5.90;99.90
14370;DHT22;7268;50.792;0.252;2024-01-06T10:54:59;5.90;99.90
14370;DHT22;7268;50.792;0.252;2024-01-06T10:57:27;5.90;99.90
14370;DHT22;7268;50.792;0.252;2024-01-06T10:59:57;5.90;99.90
14370;DHT22;7268;50.792;0.252;2024-01-06T11:02:26;5.80;99.90
14370;DHT22;7268;50.792;0.252;2024-01-06T11:04:53;5.90;99.90
14370;DHT22;7268;50.792;0.252;2024-01-06T11:07:22;6.10;99.90
14370;DHT22;7268;50.792;0.252;2024-01-06T11:10:14;6.50;99.90
14370;DHT22;7268;50.792;0.252;2024-01-06T11:12:45;7.00;99.90
14370;DHT22;7268;50.792;0.252;2024-01-06T11:15:42;7.20;99.90
14370;DHT22;7268;50.792;0.252;2024-01-06T11:18:30;7.20;99.90
14370;DHT22;7268;50.792;0.252;2024-01-06T11:23:44;6.80;99.90
14370;DHT22;7268;50.792;0.252;2024-01-06T11:26:13;6.40;99.90
14370;DHT22;7268;50.792;0.252;2024-01-06T11:28:47;6.20;99.90
14370;DHT22;7268;50.792;0.252;2024-01-06T11:31:14;6.10;99.90
14370;DHT22;7268;50.792;0.252;2024-01-06T11:33:43;6.00;99.90
14370;DHT22;7268;50.792;0.252;2024-01-06T11:36:10;6.80;99.90
14370;DHT22;7268;50.792;0.252;2024-01-06T11:38:40;9.00;99.90
14370;DHT22;7268;50.792;0.252;2024-01-06T11:41:08;11.10;99.90
14370;DHT22;7268;50.792;0.252;2024-01-06T11:43:38;12.30;96.60
14370;DHT22;7268;50.792;0.252;2024-01-06T11:46:06;13.20;94.40
14370;DHT22;7268;50.792;0.252;2024-01-06T11:48:35;13.90;91.70
14370;DHT22;7268;50.792;0.252;2024-01-06T11:51:03;14.40;90.50
14370;DHT22;7268;50.792;0.252;2024-01-06T11:53:31;14.50;85.10
14370;DHT22;7268;50.792;0.252;2024-01-06T11:56:00;14.50;85.10
14370;DHT22;7268;50.792;0.252;2024-01-06T11:58:27;14.30;84.80
14370;DHT22;7268;50.792;0.252;2024-01-06T12:00:55;13.80;83.80
14370;DHT22;7268;50.792;0.252;2024-01-06T12:03:26;13.30;86.80
14370;DHT22;7268;50.792;0.252;2024-01-06T12:06:03;12.80;88.30
14370;DHT22;7268;50.792;0.252;2024-01-06T12:08:30;11.90;90.60
14370;DHT22;7268;50.792;0.252;2024-01-06T12:11:04;11.30;91.20
14370;DHT22;7268;50.792;0.252;2024-01-06T12:13:31;10.40;92.70
14370;DHT22;7268;50.792;0.252;2024-01-06T12:15:59;9.50;94.40
14370;DHT22;7268;50.792;0.252;2024-01-06T12:18:27;8.60;96.10
14370;DHT22;7268;50.792;0.252;2024-01-06T12:20:54;8.10;97.60
14370;DHT22;7268;50.792;0.252;2024-01-06T12:23:28;7.80;98.90
14370;DHT22;7268;50.792;0.252;2024-01-06T12:25:55;7.50;99.90
14370;DHT22;7268;50.792;0.252;2024-01-06T12:28:22;7.40;99.90
14370;DHT22;7268;50.792;0.252;2024-01-06T12:30:49;7.30;99.90
14370;DHT22;7268;50.792;0.252;2024-01-06T12:33:16;7.20;99.90
14370;DHT22;7268;50.792;0.252;2024-01-06T12:35:44;7.10;99.90
14370;DHT22;7268;50.792;0.252;2024-01-06T12:38:11;7.10;99.90
14370;DHT22;7268;50.792;0.252;2024-01-06T12:40:38;7.20;99.90
14370;DHT22;7268;50.792;0.252;2024-01-06T12:43:05;7.40;99.90
14370;DHT22;7268;50.792;0.252;2024-01-06T12:45:32;7.50;99.90
14370;DHT22;7268;50.792;0.252;2024-01-06T12:48:01;7.50;99.90
14370;DHT22;7268;50.792;0.252;2024-01-06T12:50:29;7.40;99.90
14370;DHT22;7268;50.792;0.252;2024-01-06T12:52:55;7.30;99.90
14370;DHT22;7268;50.792;0.252;2024-01-06T12:55:25;7.20;99.90
14370;DHT22;7268;50.792;0.252;2024-01-06T12:57:52;7.30;99.90
14370;DHT22;7268;50.792;0.252;2024-01-06T13:00:19;7.30;99.90
14370;DHT22;7268;50.792;0.252;2024-01-06T13:02:46;7.40;99.90
14370;DHT22;7268;50.792;0.252;2024-01-06T13:05:13;7.50;99.90
14370;DHT22;7268;50.792;0.252;2024-01-06T13:07:40;7.50;99.90
14370;DHT22;7268;50.792;0.252;2024-01-06T13:10:07;7.60;99.90
14370;DHT22;7268;50.792;0.252;2024-01-06T13:12:34;7.60;99.90
14370;DHT22;7268;50.792;0.252;2024-01-06T13:15:01;7.40;99.90
14370;DHT22;7268;50.792;0.252;2024-01-06T13:17:28;7.40;99.90
14370;DHT22;7268;50.792;0.252;2024-01-06T13:19:56;7.20;99.90
14370;DHT22;7268;50.792;0.252;2024-01-06T13:22:23;7.20;99.90
14370;DHT22;7268;50.792;0.252;2024-01-06T13:24:50;7.20;99.90
14370;DHT22;7268;50.792;0.252;2024-01-06T13:27:20;7.20;99.90
14370;DHT22;7268;50.792;0.252;2024-01-06T13:29:47;7.10;99.90
14370;DHT22;7268;50.792;0.252;2024-01-06T13:32:17;7.00;99.90
14370;DHT22;7268;50.792;0.252;2024-01-06T13:34:45;6.90;99.90
14370;DHT22;7268;50.792;0.252;2024-01-06T13:37:13;6.80;99.90
14370;DHT22;7268;50.792;0.252;2024-01-06T13:39:39;6.80;99.90
14370;DHT22;7268;50.792;0.252;2024-01-06T13:42:06;6.70;99.90
14370;DHT22;7268;50.792;0.252;2024-01-06T13:44:33;6.70;99.90
14370;DHT22;7268;50.792;0.252;2024-01-06T13:47:00;6.70;99.90
14370;DHT22;7268;50.792;0.252;2024-01-06T13:49:27;6.80;99.90
14370;DHT22;7268;50.792;0.252;2024-01-06T13:51:55;6.90;99.90
14370;DHT22;7268;50.792;0.252;2024-01-06T13:54:23;7.00;99.90
14370;DHT22;7268;50.792;0.252;2024-01-06T13:56:50;7.10;99.90
14370;DHT22;7268;50.792;0.252;2024-01-06T13:59:18;7.10;99.90
14370;DHT22;7268;50.792;0.252;2024-01-06T14:01:45;7.20;99.90
14370;DHT22;7268;50.792;0.252;2024-01-06T14:04:12;7.30;99.90
14370;DHT22;7268;50.792;0.252;2024-01-06T14:06:40;7.40;99.90
14370;DHT22;7268;50.792;0.252;2024-01-06T14:09:07;7.40;99.90
14370;DHT22;7268;50.792;0.252;2024-01-06T14:11:33;7.30;99.90
14370;DHT22;7268;50.792;0.252;2024-01-06T14:14:01;7.20;99.90
14370;DHT22;7268;50.792;0.252;2024-01-06T14:16:28;7.10;99.90
14370;DHT22;7268;50.792;0.252;2024-01-06T14:18:55;7.00;99.90
14370;DHT22;7268;50.792;0.252;2024-01-06T14:21:22;6.90;99.90
14370;DHT22;7268;50.792;0.252;2024-01-06T14:23:49;6.80;99.90
14370;DHT22;7268;50.792;0.252;2024-01-06T14:26:17;6.70;99.90
14370;DHT22;7268;50.792;0.252;2024-01-06T14:28:50;6.60;99.90
14370;DHT22;7268;50.792;0.252;2024-01-06T14:31:17;6.60;99.90
14370;DHT22;7268;50.792;0.252;2024-01-06T14:33:45;6.60;99.90
14370;DHT22;7268;50.792;0.252;2024-01-06T14:36:12;6.50;99.90
14370;DHT22;7268;50.792;0.252;2024-01-06T14:38:39;6.50;99.90
14370;DHT22;7268;50.792;0.252;2024-01-06T14:41:06;6.50;99.90
14370;DHT22;7268;50.792;0.252;2024-01-06T14:43:33;6.60;99.90
14370;DHT22;7268;50.792;0.252;2024-01-06T14:46:00;6.60;99.90
14370;DHT22;7268;50.792;0.252;2024-01-06T14:48:27;6.60;99.90
14370;DHT22;7268;50.792;0.252;2024-01-06T14:50:54;6.50;99.90
14370;DHT22;7268;50.792;0.252;2024-01-06T14:53:21;6.60;99.90
14370;DHT22;7268;50.792;0.252;2024-01-06T14:55:48;6.60;99.90
14370;DHT22;7268;50.792;0.252;2024-01-06T14:58:15;6.60;99.90
14370;DHT22;7268;50.792;0.252;2024-01-06T15:00:42;6.50;99.90
14370;DHT22;7268;50.792;0.252;2024-01-06T15:03:09;6.50;99.90
14370;DHT22;7268;50.792;0.252;2024-01-06T15:05:36;6.50;99.90
14370;DHT22;7268;50.792;0.252;2024-01-06T15:08:03;6.40;99.90
14370;DHT22;7268;50.792;0.252;2024-01-06T15:10:30;6.50;99.90
14370;DHT22;7268;50.792;0.252;2024-01-06T15:12:57;6.50;99.90
14370;DHT22;7268;50.792;0.252;2024-01-06T15:15:24;6.50;99.90
14370;DHT22;7268;50.792;0.252;2024-01-06T15:17:51;6.50;99.90
14370;DHT22;7268;50.792;0.252;2024-01-06T15:20:18;6.40;99.90
14370;DHT22;7268;50.792;0.252;2024-01-06T15:22:45;6.40;99.90
14370;DHT22;7268;50.792;0.252;2024-01-06T15:25:11;6.40;99.90
14370;DHT22;7268;50.792;0.252;2024-01-06T15:27:39;6.30;99.90
14370;DHT22;7268;50.792;0.252;2024-01-06T15:30:06;6.10;99.90
14370;DHT22;7268;50.792;0.252;2024-01-06T15:32:36;6.00;99.90
14370;DHT22;7268;50.792;0.252;2024-01-06T15:35:03;5.90;99.90
14370;DHT22;7268;50.792;0.252;2024-01-06T15:37:30;6.00;99.90
14370;DHT22;7268;50.792;0.252;2024-01-06T15:39:58;6.00;99.90
14370;DHT22;7268;50.792;0.252;2024-01-06T15:42:25;6.00;99.90
14370;DHT22;7268;50.792;0.252;2024-01-06T15:44:53;6.00;99.90
14370;DHT22;7268;50.792;0.252;2024-01-06T15:47:19;6.00;99.90
14370;DHT22;7268;50.792;0.252;2024-01-06T15:49:47;6.00;99.90
14370;DHT22;7268;50.792;0.252;2024-01-06T15:52:14;6.00;99.90
14370;DHT22;7268;50.792;0.252;2024-01-06T15:54:41;6.00;99.90
14370;DHT22;7268;50.792;0.252;2024-01-06T15:57:08;6.00;99.90
14370;DHT22;7268;50.792;0.252;2024-01-06T15:59:36;6.00;99.90
14370;DHT22;7268;50.792;0.252;2024-01-06T16:02:03;6.00;99.90
14370;DHT22;7268;50.792;0.252;2024-01-06T16:04:30;5.90;99.90
14370;DHT22;7268;50.792;0.252;2024-01-06T16:06:57;5.90;99.90
14370;DHT22;7268;50.792;0.252;2024-01-06T16:09:25;5.90;99.90